Time;durP1;ratioP1;P1;durP2;ratioP2;P2;SDS_P1;SDS_P2;PMS_P1;PMS_P2;Temp;Humidity;BMP_temperature;BMP_pressure;BME280_temperature;BME280_humidity;BME280_pressure;Samples;Min_cycle;Max_cycle;Signal;HPM_P1;HPM_P2
2022/03/02 00:01:57;;;;;;;5.73;5.13;;;;;;;17.06;41.21;98162.09;4992427;28;20289;-88
2022/03/02 00:25:52;;;;;;;6.37;5.73;;;;;;;17.10;41.88;98176.72;6132728;22;20184;-89
2022/03/02 00:28:19;;;;;;;7.50;6.40;;;;;;;17.47;41.48;98247.50;5013335;28;20228;-89
2022/03/02 00:30:45;;;;;;;6.40;5.73;;;;;;;17.57;41.88;98251.44;5014509;28;20271;-88
2022/03/02 00:33:12;;;;;;;6.53;5.73;;;;;;;17.98;41.26;98324.16;5006363;28;20304;-88
2022/03/02 00:35:39;;;;;;;7.07;6.00;;;;;;;17.95;41.77;98326.50;4978821;28;20266;-89
2022/03/02 00:38:09;;;;;;;6.87;6.17;;;;;;;17.53;41.75;98245.28;4995007;28;20213;-89
2022/03/02 00:40:36;;;;;;;7.33;6.50;;;;;;;18.04;41.93;98332.13;4981474;28;20210;-88
2022/03/02 00:43:03;;;;;;;7.23;6.30;;;;;;;17.93;42.13;98325.56;4975779;28;20246;-87
2022/03/02 00:45:31;;;;;;;6.43;5.57;;;;;;;17.89;41.44;98304.97;5008133;28;20230;-89
2022/03/02 00:48:02;;;;;;;7.20;6.00;;;;;;;17.75;41.34;98288.03;4995034;28;20287;-88
2022/03/02 00:50:30;;;;;;;7.07;6.37;;;;;;;17.48;41.57;98231.47;5010643;28;20667;-87
2022/03/02 00:52:56;;;;;;;6.47;5.73;;;;;;;18.11;41.41;98335.88;5009053;28;20770;-88
2022/03/02 00:55:23;;;;;;;7.17;6.20;;;;;;;17.66;41.45;98252.84;4980330;28;20202;-88
2022/03/02 00:57:50;;;;;;;8.47;6.50;;;;;;;18.09;41.50;98325.59;4975175;28;20202;-88
2022/03/02 01:00:17;;;;;;;7.87;6.43;;;;;;;17.80;41.54;98264.63;4974811;28;20210;-88
2022/03/02 01:02:45;;;;;;;6.93;6.23;;;;;;;17.70;41.05;98242.03;4975460;28;20319;-89
2022/03/02 01:05:12;;;;;;;7.40;6.60;;;;;;;18.10;41.87;98313.78;4977951;28;20213;-88
2022/03/02 01:07:39;;;;;;;7.23;6.23;;;;;;;17.56;41.21;98214.13;4979917;28;20264;-88
2022/03/02 01:10:06;;;;;;;7.97;6.17;;;;;;;17.69;41.36;98232.66;5010026;28;20208;-87
2022/03/02 01:12:33;;;;;;;7.07;6.37;;;;;;;17.67;41.75;98224.06;4980986;28;20819;-88
2022/03/02 01:15:00;;;;;;;7.50;6.70;;;;;;;17.42;41.55;98200.59;4993047;28;20280;-89
2022/03/02 01:17:26;;;;;;;8.03;6.70;;;;;;;17.57;41.51;98206.56;5007132;28;20190;-88
2022/03/02 01:19:53;;;;;;;7.10;6.23;;;;;;;17.49;41.26;98197.63;4990851;28;20718;-88
2022/03/02 01:22:20;;;;;;;8.20;6.87;;;;;;;17.41;41.35;98162.41;4981979;28;20225;-89
2022/03/02 01:24:46;;;;;;;7.80;6.37;;;;;;;18.03;41.35;98283.72;4990894;28;20225;-88
2022/03/02 01:27:13;;;;;;;7.47;6.77;;;;;;;17.38;41.38;98155.47;4992399;28;20225;-88
2022/03/02 01:29:42;;;;;;;7.57;6.60;;;;;;;17.68;41.46;98200.41;4991407;28;20582;-89
2022/03/02 01:32:09;;;;;;;7.57;6.47;;;;;;;17.86;41.30;98239.53;4974165;28;20213;-88
2022/03/02 01:34:36;;;;;;;7.40;6.60;;;;;;;17.80;41.31;98238.34;4980485;28;20206;-88
2022/03/02 01:37:03;;;;;;;7.73;7.03;;;;;;;17.16;41.49;98106.81;4978469;28;20631;-89
2022/03/02 01:39:30;;;;;;;9.50;7.13;;;;;;;16.60;41.19;98048.56;4993998;28;20201;-88
2022/03/02 01:41:59;;;;;;;9.50;7.50;;;;;;;17.56;41.32;98176.84;5010552;28;20236;-88
2022/03/02 01:44:26;;;;;;;8.53;6.73;;;;;;;17.09;41.41;98081.00;5011102;28;20217;-88
2022/03/02 01:46:52;;;;;;;8.80;7.40;;;;;;;18.14;41.48;98252.09;5010156;28;20675;-88
2022/03/02 02:13:37;;;;;;;8.13;7.33;;;;;;;17.98;41.30;98229.19;5117568;22;20323;-89
2022/03/02 02:16:04;;;;;;;9.03;7.40;;;;;;;18.09;41.67;98253.53;4997386;28;20733;-88
2022/03/02 02:18:31;;;;;;;8.73;7.83;;;;;;;18.23;41.20;98265.31;5024654;28;20194;-88
2022/03/02 02:21:05;;;;;;;8.50;7.40;;;;;;;18.26;41.72;98260.38;4997056;28;20664;-88
2022/03/02 02:23:31;;;;;;;8.87;7.27;;;;;;;17.78;41.22;98178.91;5013619;28;20229;-88
2022/03/02 02:25:58;;;;;;;8.57;7.00;;;;;;;17.89;41.52;98188.00;5012984;28;20237;-88
2022/03/02 02:28:27;;;;;;;8.00;7.17;;;;;;;18.02;41.39;98211.63;4995059;28;20253;-89
2022/03/02 02:30:54;;;;;;;8.50;7.30;;;;;;;18.16;41.33;98227.63;5006268;28;20258;-88
2022/03/02 02:33:22;;;;;;;8.37;7.47;;;;;;;17.92;41.40;98183.94;5017030;28;20274;-89
2022/03/02 02:35:49;;;;;;;8.20;7.40;;;;;;;17.68;41.50;98141.06;5016524;28;20296;-88
2022/03/02 02:38:16;;;;;;;8.57;7.77;;;;;;;17.23;41.40;98054.72;5000410;28;20235;-88
2022/03/02 02:40:43;;;;;;;8.03;7.23;;;;;;;17.91;41.49;98172.00;5012549;28;20287;-89
2022/03/02 02:43:10;;;;;;;9.30;8.03;;;;;;;18.07;41.31;98196.59;5007663;28;20661;-88
2022/03/02 02:45:37;;;;;;;10.27;8.60;;;;;;;18.17;41.31;98217.53;5007755;28;20279;-88
2022/03/02 02:48:04;;;;;;;9.07;8.10;;;;;;;18.10;41.12;98186.59;5011202;28;20229;-88
2022/03/02 02:50:32;;;;;;;10.27;8.20;;;;;;;17.66;41.30;98107.94;5016577;28;20265;-89
2022/03/02 02:53:01;;;;;;;9.13;8.23;;;;;;;17.92;41.38;98161.03;5032220;28;20690;-88
2022/03/02 02:55:28;;;;;;;9.10;7.63;;;;;;;17.38;41.15;98086.03;5018680;28;20734;-88
2022/03/02 02:57:55;;;;;;;10.57;8.47;;;;;;;17.94;41.26;98156.91;5009535;28;20757;-88
2022/03/02 03:00:24;;;;;;;9.23;8.30;;;;;;;17.84;41.65;98146.19;5048267;28;20201;-88
2022/03/02 03:02:51;;;;;;;10.30;8.47;;;;;;;17.66;41.43;98130.81;5013975;28;20279;-88
2022/03/02 03:05:22;;;;;;;10.83;8.80;;;;;;;17.85;41.52;98156.44;5012062;28;20233;-88
2022/03/02 03:07:49;;;;;;;9.50;8.50;;;;;;;17.67;41.60;98112.22;4995036;28;20329;-88
2022/03/02 03:10:16;;;;;;;9.90;8.63;;;;;;;17.76;41.88;98125.44;4993035;28;20268;-87
2022/03/02 03:12:43;;;;;;;9.73;8.73;;;;;;;17.57;41.50;98093.88;4992191;28;20226;-88
2022/03/02 03:15:11;;;;;;;9.67;8.63;;;;;;;17.94;41.94;98159.47;5009380;28;20210;-88
2022/03/02 03:17:38;;;;;;;9.23;8.23;;;;;;;17.91;41.67;98151.66;5009907;28;20209;-88
2022/03/02 03:20:07;;;;;;;10.67;8.93;;;;;;;17.78;41.67;98135.69;5008832;28;20301;-88
2022/03/02 03:22:33;;;;;;;10.20;9.10;;;;;;;17.57;41.96;98101.50;5021505;28;20244;-88
2022/03/02 03:25:00;;;;;;;9.30;8.30;;;;;;;18.00;41.73;98182.69;5015987;28;20602;-88
2022/03/02 03:27:27;;;;;;;11.27;9.10;;;;;;;17.92;41.94;98173.75;5019619;28;20275;-88
2022/03/02 03:29:54;;;;;;;10.53;9.33;;;;;;;17.68;42.34;98151.25;5012371;28;20229;-88
2022/03/02 03:32:22;;;;;;;10.40;9.03;;;;;;;17.97;42.10;98220.66;5008590;28;20280;-88
2022/03/02 03:34:49;;;;;;;10.50;9.20;;;;;;;17.56;42.12;98150.59;5002172;28;20270;-88
2022/03/02 03:37:15;;;;;;;10.47;9.20;;;;;;;17.99;41.74;98216.53;5001816;28;20293;-88
2022/03/02 03:39:42;;;;;;;11.23;8.97;;;;;;;17.87;41.59;98192.09;4992709;28;20237;-88
2022/03/02 03:42:09;;;;;;;10.50;9.40;;;;;;;17.49;41.99;98125.59;5006268;28;20205;-88
2022/03/02 03:44:36;;;;;;;10.63;9.40;;;;;;;17.88;42.25;98193.84;4996178;28;20241;-88
2022/03/02 03:47:04;;;;;;;12.30;9.90;;;;;;;17.53;41.78;98145.34;4997303;28;20206;-89
2022/03/02 04:19:12;;;;;;;14.37;11.00;;;;;;;16.84;41.53;97994.13;5526262;22;20272;-88
2022/03/02 04:21:38;;;;;;;13.83;11.60;;;;;;;17.64;41.74;98119.69;5014655;28;20247;-88
2022/03/02 04:24:05;;;;;;;13.10;10.73;;;;;;;17.95;41.82;98173.91;5014930;28;20251;-89
2022/03/02 04:26:32;;;;;;;12.53;10.80;;;;;;;17.12;41.56;98036.34;5010844;28;20288;-89
2022/03/02 04:28:58;;;;;;;12.87;10.40;;;;;;;17.30;42.08;98049.16;5010599;28;20294;-89
2022/03/02 04:31:25;;;;;;;13.03;10.57;;;;;;;17.00;41.94;97989.97;5002262;28;20257;-88
2022/03/02 04:33:52;;;;;;;12.33;10.70;;;;;;;17.79;41.85;98128.13;5002037;28;20283;-89
2022/03/02 04:36:18;;;;;;;12.33;10.30;;;;;;;17.61;41.73;98086.50;5019843;28;20229;-89
2022/03/02 04:38:45;;;;;;;12.23;10.10;;;;;;;17.70;41.66;98102.22;5005414;28;20227;-88
2022/03/02 04:41:11;;;;;;;12.10;10.57;;;;;;;17.71;41.47;98098.03;5004299;28;20225;-88
2022/03/02 04:43:38;;;;;;;12.20;10.30;;;;;;;18.06;41.24;98169.44;5020645;28;20739;-88
2022/03/02 04:46:08;;;;;;;11.53;9.80;;;;;;;17.56;41.40;98066.72;5003369;28;20276;-88
2022/03/02 04:48:34;;;;;;;11.33;10.13;;;;;;;18.05;41.27;98144.78;5035210;28;20224;-89
2022/03/02 04:51:01;;;;;;;12.00;10.53;;;;;;;18.07;41.19;98166.09;5020387;28;20270;-88
2022/03/02 04:53:28;;;;;;;12.87;10.03;;;;;;;18.05;41.33;98140.56;4994186;28;20315;-88
2022/03/02 04:55:54;;;;;;;12.10;10.43;;;;;;;17.84;41.50;98105.50;5010982;28;20233;-88
2022/03/02 04:58:21;;;;;;;11.13;9.93;;;;;;;17.74;41.82;98080.41;5010898;28;20288;-89
2022/03/02 05:00:47;;;;;;;12.07;10.37;;;;;;;17.78;41.34;98092.47;5016643;28;20288;-89
2022/03/02 05:03:14;;;;;;;13.33;11.10;;;;;;;17.77;41.31;98089.03;4998003;28;20224;-88
2022/03/02 05:05:41;;;;;;;13.33;10.77;;;;;;;17.35;41.30;98005.41;5029674;28;20196;-89
2022/03/02 05:08:08;;;;;;;12.90;10.70;;;;;;;17.06;41.50;97969.13;5002678;28;20222;-88
2022/03/02 05:10:36;;;;;;;13.77;10.53;;;;;;;17.80;41.69;98094.28;5002203;28;20699;-88
2022/03/02 05:13:03;;;;;;;11.63;10.43;;;;;;;17.53;41.30;98046.22;5013964;28;20235;-89
2022/03/02 05:15:30;;;;;;;12.47;10.77;;;;;;;17.87;41.37;98110.75;4995090;28;20754;-88
2022/03/02 05:17:58;;;;;;;12.67;11.37;;;;;;;18.12;41.19;98157.03;5041255;28;20260;-88
2022/03/02 05:20:25;;;;;;;12.63;11.17;;;;;;;17.61;41.03;98062.72;5017172;28;20197;-87
2022/03/02 05:22:51;;;;;;;12.77;10.30;;;;;;;18.03;41.33;98141.28;4994181;28;20229;-89
2022/03/02 05:25:18;;;;;;;11.97;10.67;;;;;;;18.10;41.33;98146.78;4994375;28;20205;-89
2022/03/02 05:27:45;;;;;;;12.73;10.67;;;;;;;17.56;41.20;98051.47;5003633;28;20329;-88
2022/03/02 05:30:15;;;;;;;14.20;11.83;;;;;;;17.61;41.11;98075.44;5015562;28;20288;-88
2022/03/02 05:32:41;;;;;;;13.90;11.27;;;;;;;18.17;41.64;98163.22;5013269;28;20314;-88
2022/03/02 05:35:08;;;;;;;13.17;11.13;;;;;;;17.80;41.19;98107.00;5013838;28;20281;-89
2022/03/02 05:37:35;;;;;;;12.97;11.23;;;;;;;18.12;40.99;98157.88;5007528;28;20229;-87
2022/03/02 05:40:02;;;;;;;13.87;11.17;;;;;;;17.44;41.30;98033.88;5013233;28;20232;-87
2022/03/02 05:42:29;;;;;;;13.37;11.27;;;;;;;17.87;41.36;98104.00;5028313;28;20642;-87
2022/03/02 05:44:55;;;;;;;11.47;10.27;;;;;;;17.87;41.34;98098.03;5013110;28;20284;-88
2022/03/02 05:47:22;;;;;;;12.20;10.90;;;;;;;17.91;41.15;98100.81;5016724;28;20224;-88
2022/03/02 05:49:50;;;;;;;13.40;11.57;;;;;;;17.83;41.29;98085.97;5036469;28;20252;-89
2022/03/02 05:52:18;;;;;;;12.57;11.27;;;;;;;17.81;41.24;98080.81;5020828;28;20203;-87
2022/03/02 05:54:45;;;;;;;13.20;10.80;;;;;;;17.57;41.49;98038.84;5021320;28;20289;-87
2022/03/02 05:57:11;;;;;;;12.53;10.70;;;;;;;17.39;41.20;98022.59;5037627;28;20300;-89
2022/03/02 05:59:38;;;;;;;18.90;15.50;;;;;;;18.13;41.08;98138.44;5017569;28;20377;-87
2022/03/02 06:02:05;;;;;;;93.83;68.00;;;;;;;17.97;38.47;98125.72;5017297;28;20201;-87
2022/03/02 06:04:32;;;;;;;76.80;59.87;;;;;;;18.17;36.00;98159.00;5001368;28;20206;-86
2022/03/02 06:06:59;;;;;;;56.87;44.23;;;;;;;17.89;33.84;98109.16;5023795;28;20201;-87
2022/03/02 06:09:26;;;;;;;43.27;34.30;;;;;;;17.98;33.02;98132.53;5033875;28;20248;-86
2022/03/02 06:11:53;;;;;;;39.17;28.17;;;;;;;17.71;32.05;98093.78;5016743;28;20647;-87
2022/03/02 06:14:19;;;;;;;31.60;24.40;;;;;;;17.66;31.85;98097.78;5001351;28;20306;-87
2022/03/02 06:16:46;;;;;;;29.60;24.60;;;;;;;17.81;30.89;98123.13;5002776;28;20232;-88
2022/03/02 06:19:14;;;;;;;36.73;24.77;;;;;;;17.80;30.79;98126.47;5001309;28;20284;-87
2022/03/02 06:21:43;;;;;;;42.50;30.37;;;;;;;17.76;30.61;98117.81;5016732;28;20206;-87
2022/03/02 06:24:10;;;;;;;43.53;31.50;;;;;;;17.75;30.54;98133.88;5012777;28;20745;-86
2022/03/02 06:26:37;;;;;;;40.13;31.53;;;;;;;17.68;30.32;98124.13;5037390;28;20288;-88
2022/03/02 06:29:04;;;;;;;41.67;31.50;;;;;;;17.40;30.42;98080.22;5002460;28;20253;-86
2022/03/02 06:31:31;;;;;;;39.83;30.77;;;;;;;17.70;29.88;98130.19;5017106;28;20240;-87
2022/03/02 06:33:58;;;;;;;38.40;30.27;;;;;;;17.76;30.21;98150.84;5000029;28;20221;-86
2022/03/02 06:36:25;;;;;;;68.87;50.53;;;;;;;17.51;29.90;98121.50;5016653;28;20241;-90
2022/03/02 06:38:51;;;;;;;93.63;67.97;;;;;;;17.23;31.41;98072.50;5020239;28;20639;-88
2022/03/02 06:41:43;;;;;;;102.93;66.23;;;;;;;17.20;32.14;98064.72;5019710;28;20254;-89
2022/03/02 06:44:37;;;;;;;82.70;59.97;;;;;;;17.78;32.80;98162.00;5053762;28;20264;-87
2022/03/02 06:47:06;;;;;;;81.37;62.97;;;;;;;17.60;33.19;98138.13;5052860;28;20203;-88
2022/03/02 06:49:52;;;;;;;79.73;57.53;;;;;;;17.79;34.38;98157.75;5036155;28;20323;-86
2022/03/02 06:52:19;;;;;;;77.50;54.33;;;;;;;17.09;35.73;98042.91;5038404;28;20224;-86
2022/03/02 06:54:47;;;;;;;73.27;50.73;;;;;;;17.51;36.01;98111.31;5035322;28;20287;-86
2022/03/02 06:57:18;;;;;;;70.60;52.87;;;;;;;17.69;36.60;98137.72;5021090;28;20726;-86
2022/03/02 06:59:55;;;;;;;67.13;49.83;;;;;;;17.84;36.92;98162.31;5016430;28;20275;-87
2022/03/02 07:02:27;;;;;;;59.80;45.90;;;;;;;17.40;37.40;98084.41;5016548;28;20247;-86
2022/03/02 07:04:54;;;;;;;56.73;41.93;;;;;;;17.31;37.66;98067.03;5034094;28;20194;-86
2022/03/02 07:07:22;;;;;;;60.10;40.93;;;;;;;17.26;37.83;98067.56;5021213;28;20593;-93
2022/03/02 07:39:49;;;;;;;44.80;30.00;;;;;;;17.72;36.25;98142.97;6128585;22;20164;-86
2022/03/02 07:42:27;;;;;;;39.47;29.27;;;;;;;17.67;36.57;98130.03;5007132;28;20355;-86
2022/03/02 07:44:54;;;;;;;40.23;29.27;;;;;;;17.34;37.15;98066.31;5005332;28;20300;-87
2022/03/02 07:47:20;;;;;;;41.03;29.77;;;;;;;17.67;37.34;98124.06;4987290;28;20288;-87
2022/03/02 07:49:47;;;;;;;38.57;30.17;;;;;;;17.66;37.66;98117.22;4978526;28;20230;-86
2022/03/02 07:52:15;;;;;;;37.63;29.37;;;;;;;17.51;37.80;98096.06;4984177;28;20731;-87
2022/03/02 07:54:41;;;;;;;37.23;28.23;;;;;;;17.70;38.05;98131.84;4985477;28;20297;-86
2022/03/02 07:57:10;;;;;;;39.77;29.33;;;;;;;17.66;38.15;98113.03;5009451;28;20734;-87
2022/03/02 07:59:40;;;;;;;36.43;27.43;;;;;;;17.76;38.33;98134.72;5003127;28;20194;-87
2022/03/02 08:02:08;;;;;;;35.20;26.90;;;;;;;17.94;38.43;98158.56;4971796;28;20202;-87
2022/03/02 08:04:36;;;;;;;34.77;27.93;;;;;;;17.70;39.17;98121.69;5009062;28;20285;-86
2022/03/02 08:07:03;;;;;;;35.50;28.03;;;;;;;17.79;38.83;98133.22;4971736;28;20555;-86
2022/03/02 08:09:32;;;;;;;37.37;26.67;;;;;;;17.62;38.79;98098.41;4977594;28;20250;-86
2022/03/02 08:12:00;;;;;;;32.20;25.57;;;;;;;17.78;38.79;98118.78;4968053;28;20520;-86
2022/03/02 08:14:27;;;;;;;36.10;25.03;;;;;;;17.73;38.49;98109.13;4999695;28;20317;-86
2022/03/02 08:16:55;;;;;;;47.63;34.77;;;;;;;17.77;38.59;98119.53;4999259;28;20290;-86
2022/03/02 08:19:21;;;;;;;50.23;38.23;;;;;;;17.64;38.61;98086.66;4988288;28;20285;-87
2022/03/02 08:21:58;;;;;;;45.57;35.77;;;;;;;17.63;38.56;98084.91;5020653;28;20245;-87
2022/03/02 08:24:29;;;;;;;44.43;35.40;;;;;;;17.57;38.52;98076.97;4994215;28;20228;-84
2022/03/02 08:27:01;;;;;;;46.63;35.53;;;;;;;17.73;38.64;98102.38;4994909;28;20191;-86
2022/03/02 08:29:31;;;;;;;46.50;35.87;;;;;;;17.80;38.58;98114.63;4975144;28;20302;-86
2022/03/02 08:31:59;;;;;;;47.60;35.03;;;;;;;17.83;38.67;98119.88;4987144;28;20289;-85
2022/03/02 08:34:27;;;;;;;48.23;35.60;;;;;;;17.73;38.86;98096.41;4966991;28;20264;-86
2022/03/02 08:36:54;;;;;;;46.27;35.57;;;;;;;17.85;38.81;98117.41;4994307;28;20313;-86
2022/03/02 08:39:20;;;;;;;44.70;34.00;;;;;;;17.76;39.13;98094.94;5008254;28;20218;-86
2022/03/02 08:41:48;;;;;;;41.47;32.43;;;;;;;17.90;38.73;98113.44;4999969;28;20256;-86
2022/03/02 08:44:15;;;;;;;40.93;32.27;;;;;;;17.83;38.84;98103.75;4993687;28;20275;-86
2022/03/02 08:46:44;;;;;;;40.93;32.63;;;;;;;17.84;39.05;98105.50;4981074;28;20208;-86
2022/03/02 08:49:15;;;;;;;38.43;30.03;;;;;;;18.02;39.32;98126.81;4983690;28;20222;-85
2022/03/02 08:51:42;;;;;;;43.13;31.77;;;;;;;18.01;39.27;98127.63;4992568;28;20231;-85
2022/03/02 08:54:11;;;;;;;37.20;29.93;;;;;;;17.76;39.19;98076.25;4982636;28;20254;-86
2022/03/02 08:56:39;;;;;;;41.13;30.57;;;;;;;17.33;39.37;98008.69;4974094;28;20230;-90
2022/03/02 08:59:06;;;;;;;39.10;30.80;;;;;;;17.45;39.47;98027.16;5001316;28;20285;-86
2022/03/02 09:01:32;;;;;;;42.10;33.20;;;;;;;17.74;39.47;98086.34;4978463;28;20309;-86
2022/03/02 09:04:00;;;;;;;43.63;32.73;;;;;;;17.74;39.57;98077.84;4993025;28;20260;-87
2022/03/02 09:06:29;;;;;;;42.13;32.47;;;;;;;17.81;39.27;98096.06;4977758;28;20218;-86
2022/03/02 09:08:56;;;;;;;49.37;33.60;;;;;;;17.89;39.13;98106.63;4977690;28;20291;-85
2022/03/02 09:11:23;;;;;;;39.17;31.37;;;;;;;17.87;39.62;98096.38;5025509;28;20305;-87
2022/03/02 09:13:50;;;;;;;45.03;34.37;;;;;;;17.77;39.73;98078.88;4974291;28;20285;-86
2022/03/02 09:16:20;;;;;;;43.80;33.57;;;;;;;17.80;39.77;98083.25;4977638;28;21000;-87
2022/03/02 09:18:47;;;;;;;41.77;32.87;;;;;;;17.78;39.62;98074.66;4997487;28;20197;-87
2022/03/02 09:21:14;;;;;;;41.47;32.83;;;;;;;17.85;39.76;98089.44;4996369;28;20267;-88
2022/03/02 09:23:42;;;;;;;40.57;32.03;;;;;;;17.82;39.84;98091.81;4979475;28;20242;-86
2022/03/02 09:26:10;;;;;;;44.23;34.47;;;;;;;17.73;39.90;98074.44;4983707;28;20218;-87
2022/03/02 09:28:38;;;;;;;42.20;33.57;;;;;;;17.91;40.23;98105.00;4995240;28;20193;-87
2022/03/02 09:31:06;;;;;;;45.77;34.83;;;;;;;17.81;40.01;98085.00;4997477;28;20229;-87
2022/03/02 09:33:37;;;;;;;41.23;31.87;;;;;;;17.89;39.79;98093.91;4983594;28;20237;-87
2022/03/02 09:36:08;;;;;;;42.13;32.83;;;;;;;17.78;40.03;98073.00;4993933;28;20280;-87
2022/03/02 09:38:35;;;;;;;42.90;33.23;;;;;;;17.81;40.29;98073.16;5012831;28;20256;-89
2022/03/02 09:41:11;;;;;;;45.63;33.60;;;;;;;17.97;40.28;98097.75;4979982;28;20206;-87
2022/03/02 09:43:40;;;;;;;46.10;33.30;;;;;;;17.45;40.59;98010.25;5002274;28;20279;-87
2022/03/02 09:46:09;;;;;;;43.60;34.87;;;;;;;17.95;40.65;98104.41;4995019;28;20223;-87
2022/03/02 09:48:41;;;;;;;42.30;33.23;;;;;;;17.60;40.59;98038.13;4994952;28;20198;-86
2022/03/02 09:51:08;;;;;;;40.63;32.43;;;;;;;17.72;40.63;98062.53;4972023;28;20760;-87
2022/03/02 09:53:35;;;;;;;41.27;32.90;;;;;;;17.82;40.67;98077.44;4993126;28;20916;-86
2022/03/02 09:56:08;;;;;;;40.80;32.47;;;;;;;17.65;40.30;98047.72;4993551;28;20234;-87
2022/03/02 09:58:38;;;;;;;39.57;31.63;;;;;;;17.87;40.53;98085.31;5003263;28;20221;-88
2022/03/02 10:01:08;;;;;;;44.40;33.10;;;;;;;17.56;40.58;98024.38;4980330;28;20815;-87
2022/03/02 10:03:36;;;;;;;38.50;31.17;;;;;;;17.76;40.79;98061.88;5008771;28;20305;-87
2022/03/02 10:06:04;;;;;;;42.80;34.07;;;;;;;17.70;40.95;98056.47;4993546;28;20195;-87
2022/03/02 10:08:35;;;;;;;42.03;33.10;;;;;;;17.65;40.51;98039.25;5002490;28;20225;-87
2022/03/02 10:11:04;;;;;;;40.67;32.40;;;;;;;17.80;40.66;98062.94;4996411;28;20218;-87
2022/03/02 10:13:31;;;;;;;36.80;30.60;;;;;;;17.65;40.70;98035.00;4982326;28;20221;-88
2022/03/02 10:15:58;;;;;;;38.67;32.30;;;;;;;17.30;40.59;97975.50;4997317;28;20280;-87
2022/03/02 10:18:25;;;;;;;39.70;32.60;;;;;;;17.86;41.08;98066.63;5012387;28;20190;-88
2022/03/02 10:20:53;;;;;;;40.57;31.77;;;;;;;17.53;41.41;98018.28;5013413;28;20210;-87
2022/03/02 10:23:29;;;;;;;40.17;31.87;;;;;;;17.95;40.93;98081.50;4994541;28;20242;-87
2022/03/02 10:26:18;;;;;;;41.37;31.60;;;;;;;17.95;40.81;98086.59;5013616;28;20281;-88
2022/03/02 10:28:51;;;;;;;40.07;31.90;;;;;;;17.94;40.84;98088.25;4990532;28;20195;-86
2022/03/02 10:31:40;;;;;;;36.60;30.20;;;;;;;17.74;40.72;98039.72;5011990;28;20626;-87
2022/03/02 10:34:13;;;;;;;40.93;32.00;;;;;;;17.94;41.37;98082.28;4999029;28;20222;-87
2022/03/02 10:36:41;;;;;;;40.70;31.30;;;;;;;17.73;41.10;98051.56;5024456;28;20182;-88
2022/03/02 10:39:07;;;;;;;39.13;31.97;;;;;;;17.72;41.07;98059.09;5000118;28;20232;-87
2022/03/02 10:41:37;;;;;;;39.17;30.20;;;;;;;17.79;41.08;98063.69;5000075;28;20696;-88
2022/03/02 10:44:15;;;;;;;40.63;31.03;;;;;;;17.82;40.88;98071.47;4981954;28;20245;-89
2022/03/02 10:46:46;;;;;;;38.23;31.03;;;;;;;17.62;40.81;98039.94;4979847;28;20199;-87
2022/03/02 10:49:22;;;;;;;39.90;31.97;;;;;;;17.68;41.30;98047.03;4982758;28;20211;-88
2022/03/02 10:51:48;;;;;;;35.73;30.07;;;;;;;17.74;40.90;98055.81;5013631;28;20831;-85
2022/03/02 10:54:21;;;;;;;36.67;30.67;;;;;;;17.55;41.14;98025.16;4993141;28;20253;-86
2022/03/02 10:56:50;;;;;;;37.70;29.53;;;;;;;17.81;41.01;98067.19;5001046;28;20654;-86
2022/03/02 10:59:17;;;;;;;36.53;30.10;;;;;;;17.91;41.04;98077.03;4990645;28;20281;-85
2022/03/02 11:01:49;;;;;;;37.70;30.17;;;;;;;17.75;41.00;98052.50;4980085;28;20199;-85
2022/03/02 11:04:18;;;;;;;37.83;29.83;;;;;;;17.58;41.18;98020.25;4991273;28;20592;-86
2022/03/02 11:06:45;;;;;;;34.07;27.77;;;;;;;17.74;40.76;98042.25;5025707;28;20198;-85
2022/03/02 11:09:25;;;;;;;34.83;28.70;;;;;;;17.67;41.56;98035.09;5001982;28;20273;-86
2022/03/02 11:11:53;;;;;;;36.20;30.20;;;;;;;17.74;40.99;98032.94;4999289;28;20288;-85
2022/03/02 11:14:20;;;;;;;33.50;26.80;;;;;;;17.53;40.78;97996.25;4995025;28;20309;-87
2022/03/02 11:16:47;;;;;;;34.23;28.90;;;;;;;17.41;41.22;97975.25;4977256;28;20643;-87
2022/03/02 11:19:15;;;;;;;34.10;27.57;;;;;;;17.23;41.41;97936.19;4961683;28;20207;-87
2022/03/02 11:21:43;;;;;;;35.13;28.73;;;;;;;17.83;41.01;98048.69;4998230;28;20678;-86
2022/03/02 11:24:16;;;;;;;36.20;29.60;;;;;;;17.74;40.64;98014.31;4999878;28;20326;-85
2022/03/02 11:26:48;;;;;;;33.27;28.47;;;;;;;17.54;41.29;97980.25;4991830;28;20198;-86
2022/03/02 11:29:17;;;;;;;36.20;29.77;;;;;;;17.63;41.13;97987.44;4996483;28;20202;-85
2022/03/02 11:31:50;;;;;;;36.87;29.07;;;;;;;17.77;41.15;98007.69;5011778;28;20297;-85
2022/03/02 11:34:18;;;;;;;36.00;27.60;;;;;;;17.95;40.86;98031.50;4981443;28;20272;-84
2022/03/02 11:36:47;;;;;;;34.57;28.27;;;;;;;17.49;41.03;97958.78;4997698;28;20298;-85
2022/03/02 11:39:15;;;;;;;33.13;27.00;;;;;;;17.78;41.16;97978.94;4995128;28;20245;-85
2022/03/02 11:41:44;;;;;;;33.07;26.27;;;;;;;17.75;41.65;97981.34;4994632;28;20755;-86
2022/03/02 11:44:29;;;;;;;33.77;27.17;;;;;;;17.96;41.37;98020.56;4977191;28;20249;-87
2022/03/02 11:46:58;;;;;;;33.23;27.03;;;;;;;17.20;41.43;97887.78;5011935;28;20194;-87
2022/03/02 11:49:37;;;;;;;34.47;26.53;;;;;;;17.95;41.55;98008.63;4998279;28;20194;-85
2022/03/02 11:52:05;;;;;;;37.10;27.73;;;;;;;17.62;41.47;97950.13;5031988;28;20228;-85
2022/03/02 11:54:59;;;;;;;34.63;27.40;;;;;;;17.93;41.67;98007.69;5031402;28;20617;-86
2022/03/02 11:57:30;;;;;;;33.10;27.53;;;;;;;17.77;41.75;97979.72;5013435;28;20217;-85
2022/03/02 12:00:06;;;;;;;36.63;28.03;;;;;;;17.67;41.58;97961.38;4999815;28;20986;-85
2022/03/02 12:02:44;;;;;;;35.23;27.50;;;;;;;17.69;41.49;97960.69;5013844;28;20271;-85
2022/03/02 12:05:11;;;;;;;33.53;26.93;;;;;;;17.61;41.32;97950.91;5015155;28;20213;-89
2022/03/02 12:07:42;;;;;;;32.70;27.00;;;;;;;17.23;41.54;97882.84;4997934;28;20186;-85
2022/03/02 12:10:20;;;;;;;34.07;26.47;;;;;;;17.92;41.61;97995.75;5014125;28;20214;-83
2022/03/02 12:12:47;;;;;;;34.17;26.50;;;;;;;17.74;41.36;97950.75;5020324;28;20238;-86
2022/03/02 12:15:14;;;;;;;31.93;25.60;;;;;;;17.81;41.50;97974.03;4979456;28;20207;-87
2022/03/02 12:17:40;;;;;;;30.60;25.77;;;;;;;17.45;41.65;97903.53;4979884;28;20226;-86
2022/03/02 12:20:15;;;;;;;32.87;25.90;;;;;;;17.74;41.39;97951.59;4980826;28;20241;-85
2022/03/02 12:22:44;;;;;;;32.57;26.47;;;;;;;17.65;41.33;97935.88;4975894;28;20288;-86
2022/03/02 12:25:19;;;;;;;32.67;24.93;;;;;;;17.26;41.37;97866.91;4985359;28;20206;-86
2022/03/02 12:28:02;;;;;;;35.03;27.00;;;;;;;17.91;41.75;97975.34;4974335;28;20204;-88
2022/03/02 12:30:33;;;;;;;34.37;26.70;;;;;;;17.60;41.45;97916.13;4993914;28;20301;-86
2022/03/02 12:32:59;;;;;;;34.83;25.97;;;;;;;17.66;41.75;97930.03;4983336;28;20222;-87
2022/03/02 12:35:27;;;;;;;33.53;26.63;;;;;;;17.61;41.58;97920.41;4989647;28;20301;-87
2022/03/02 12:37:59;;;;;;;34.03;27.33;;;;;;;17.74;41.33;97945.66;4965708;28;20232;-89
2022/03/02 12:40:30;;;;;;;33.50;26.57;;;;;;;17.90;41.73;97973.59;4978463;28;20202;-89
2022/03/02 12:42:57;;;;;;;35.00;27.13;;;;;;;17.90;42.06;97976.16;4973412;28;20714;-87
2022/03/02 12:45:24;;;;;;;30.90;24.80;;;;;;;17.41;41.72;97890.56;4978040;28;20273;-86
2022/03/02 12:47:51;;;;;;;29.73;25.03;;;;;;;17.62;41.90;97922.19;4987214;28;20814;-84
2022/03/02 12:50:18;;;;;;;33.47;26.40;;;;;;;17.70;41.97;97946.28;4976960;28;20250;-83
2022/03/02 12:52:46;;;;;;;45.30;31.13;;;;;;;17.39;41.74;97882.88;4993461;28;20250;-86
2022/03/02 12:55:14;;;;;;;44.40;31.93;;;;;;;17.59;41.68;97912.72;4988336;28;20229;-86
2022/03/02 12:57:41;;;;;;;40.07;29.63;;;;;;;17.42;41.49;97875.41;4978132;28;20289;-86
2022/03/02 13:00:09;;;;;;;39.60;30.20;;;;;;;17.86;41.55;97949.69;5000079;28;20242;-84
2022/03/02 13:02:37;;;;;;;38.50;29.80;;;;;;;17.68;41.51;97914.88;5016562;28;20276;-86
2022/03/02 13:05:15;;;;;;;39.37;29.80;;;;;;;17.58;41.62;97897.38;4982729;28;20210;-86
2022/03/02 13:07:46;;;;;;;37.13;28.33;;;;;;;17.86;41.32;97944.59;5015294;28;20519;-85
2022/03/02 13:10:13;;;;;;;39.17;28.60;;;;;;;17.69;41.71;97920.03;5016362;28;20312;-87
2022/03/02 13:12:46;;;;;;;37.90;28.30;;;;;;;17.28;41.38;97842.44;4983627;28;20607;-86
2022/03/02 13:15:19;;;;;;;39.50;28.37;;;;;;;17.86;41.88;97944.59;4984882;28;20225;-86